Time;durP1;ratioP1;P1;durP2;ratioP2;P2;SDS_P1;SDS_P2;PMS_P1;PMS_P2;Temp;Humidity;BMP_temperature;BMP_pressure;BME280_temperature;BME280_humidity;BME280_pressure;Samples;Min_cycle;Max_cycle;Signal;HPM_P1;HPM_P2
2023/02/13 00:02:50;;;;;;;11.65;4.45;;;;;;;7.04;100.00;103546.66;6253758;28;20126;-80
2023/02/13 00:05:53;;;;;;;7.60;3.53;;;;;;;7.02;100.00;103551.03;6253124;28;20361;-79
2023/02/13 00:08:54;;;;;;;9.70;4.05;;;;;;;7.01;100.00;103552.78;6253710;28;20060;-81
2023/02/13 00:11:55;;;;;;;7.95;4.18;;;;;;;7.03;100.00;103558.00;6253418;28;20061;-80
2023/02/13 00:14:58;;;;;;;7.60;3.70;;;;;;;7.02;100.00;103557.13;6253134;28;20433;-80
2023/02/13 00:17:59;;;;;;;8.02;3.75;;;;;;;7.04;100.00;103554.50;6252843;28;20045;-80
2023/02/13 00:21:05;;;;;;;9.70;3.90;;;;;;;7.02;100.00;103548.41;6253464;28;20053;-80
2023/02/13 00:24:07;;;;;;;7.45;3.83;;;;;;;6.99;100.00;103551.88;6253231;28;20065;-79
2023/02/13 00:27:08;;;;;;;10.23;4.22;;;;;;;6.97;100.00;103545.78;6253168;28;20046;-80
2023/02/13 00:30:10;;;;;;;8.43;4.57;;;;;;;6.98;100.00;103542.28;6252900;28;20040;-81
2023/02/13 00:33:11;;;;;;;9.05;4.18;;;;;;;6.98;100.00;103544.91;6251326;28;20050;-81
2023/02/13 00:36:16;;;;;;;9.02;3.95;;;;;;;6.98;100.00;103534.44;6252874;28;20049;-81
2023/02/13 00:39:18;;;;;;;7.07;4.03;;;;;;;6.95;100.00;103539.66;6252789;28;20048;-81
2023/02/13 00:42:22;;;;;;;11.05;5.05;;;;;;;6.93;100.00;103541.38;6252918;28;20056;-81
2023/02/13 00:45:24;;;;;;;10.65;4.32;;;;;;;6.95;100.00;103539.66;6252290;28;20535;-79
2023/02/13 00:48:26;;;;;;;9.25;3.88;;;;;;;6.96;100.00;103532.69;6252168;28;20046;-80
2023/02/13 00:51:28;;;;;;;9.45;4.45;;;;;;;7.01;100.00;103544.06;6252061;28;20319;-80
2023/02/13 00:54:30;;;;;;;7.28;3.80;;;;;;;6.98;100.00;103536.19;6252256;28;20046;-80
2023/02/13 00:57:31;;;;;;;7.28;4.03;;;;;;;6.99;100.00;103535.31;6252087;28;20341;-81
2023/02/13 01:00:32;;;;;;;13.30;5.03;;;;;;;6.98;100.00;103538.81;6252424;28;20182;-81
2023/02/13 01:03:34;;;;;;;9.40;4.22;;;;;;;6.97;100.00;103539.66;6251918;28;20041;-80
2023/02/13 01:06:36;;;;;;;9.20;4.40;;;;;;;6.97;100.00;103534.44;6251808;28;20326;-81
2023/02/13 01:09:38;;;;;;;8.63;4.35;;;;;;;6.93;100.00;103535.28;6252111;28;20056;-81
2023/02/13 01:12:39;;;;;;;9.48;3.88;;;;;;;6.92;100.00;103531.81;6251565;28;20056;-80
2023/02/13 01:15:41;;;;;;;10.38;4.63;;;;;;;6.93;100.00;103530.06;6251872;28;20484;-80
2023/02/13 01:18:42;;;;;;;8.38;3.80;;;;;;;6.94;100.00;103523.94;6251678;28;20655;-80
2023/02/13 01:21:45;;;;;;;6.88;3.58;;;;;;;6.97;100.00;103531.81;6251624;28;20056;-80
2023/02/13 01:24:46;;;;;;;9.10;4.45;;;;;;;6.97;100.00;103529.22;6251554;28;20046;-80
2023/02/13 01:27:48;;;;;;;8.73;4.50;;;;;;;6.97;100.00;103524.00;6243812;28;20060;-80
2023/02/13 01:30:53;;;;;;;7.60;4.53;;;;;;;6.93;100.00;103524.81;6251443;28;20049;-81
2023/02/13 01:33:56;;;;;;;8.95;4.00;;;;;;;6.92;100.00;103531.81;6251329;28;20485;-80
2023/02/13 01:36:59;;;;;;;9.38;4.10;;;;;;;6.93;100.00;103532.66;6251308;28;20508;-81
2023/02/13 01:40:00;;;;;;;6.97;3.53;;;;;;;6.91;100.00;103529.19;6251358;28;20050;-80
2023/02/13 01:43:02;;;;;;;6.43;3.40;;;;;;;6.90;100.00;103520.44;6250941;28;20049;-80
2023/02/13 01:46:03;;;;;;;11.60;5.30;;;;;;;6.91;100.00;103516.13;6250698;28;20057;-80
2023/02/13 01:49:11;;;;;;;8.80;4.00;;;;;;;6.90;100.00;103514.34;6250878;28;20052;-79
2023/02/13 01:52:16;;;;;;;7.57;3.53;;;;;;;6.90;100.00;103515.22;6251364;28;20068;-80
2023/02/13 01:55:18;;;;;;;10.60;4.50;;;;;;;6.91;100.00;103514.38;6250877;28;20049;-81
2023/02/13 01:58:25;;;;;;;9.73;3.80;;;;;;;6.88;100.00;103514.34;6250862;28;20361;-80
2023/02/13 02:01:27;;;;;;;6.40;3.75;;;;;;;6.86;100.00;103513.47;6251213;28;20429;-81
2023/02/13 02:04:32;;;;;;;10.68;4.55;;;;;;;6.84;100.00;103505.59;6250796;28;20477;-80
2023/02/13 02:07:38;;;;;;;13.88;5.30;;;;;;;6.84;100.00;103504.72;6250368;28;20504;-80
2023/02/13 02:10:40;;;;;;;11.27;4.85;;;;;;;6.82;100.00;103501.25;6250810;28;20383;-80
2023/02/13 02:13:42;;;;;;;11.30;4.38;;;;;;;6.84;100.00;103499.50;6250812;28;20057;-81
2023/02/13 02:16:43;;;;;;;10.85;5.40;;;;;;;6.85;100.00;103496.88;6250300;28;20052;-80
2023/02/13 02:19:54;;;;;;;14.35;5.32;;;;;;;6.86;100.00;103496.03;6250578;28;20349;-81
2023/02/13 02:23:27;;;;;;;9.10;5.05;;;;;;;6.85;100.00;103496.00;6244675;28;20050;-81
2023/02/13 02:27:02;;;;;;;11.35;5.05;;;;;;;6.79;100.00;103488.16;6225516;28;20037;-80
2023/02/13 02:30:22;;;;;;;8.50;3.90;;;;;;;6.81;100.00;103482.06;6239467;28;20242;-81
2023/02/13 02:33:32;;;;;;;6.80;3.75;;;;;;;6.81;100.00;103476.84;6250124;28;20045;-80
2023/02/13 02:36:49;;;;;;;8.48;4.63;;;;;;;6.77;100.00;103475.06;6250321;28;20052;-81
2023/02/13 02:40:03;;;;;;;8.07;4.15;;;;;;;6.79;100.00;103477.69;6242346;28;20049;-80
2023/02/13 02:43:19;;;;;;;8.65;4.57;;;;;;;6.80;100.00;103471.59;6250120;28;20053;-81
2023/02/13 02:46:28;;;;;;;9.00;4.57;;;;;;;6.79;100.00;103475.94;6250018;28;20045;-81
2023/02/13 02:53:06;;;;;;;10.07;4.65;;;;;;;6.75;100.00;103478.53;6243407;28;20057;-81
2023/02/13 02:56:13;;;;;;;9.80;4.88;;;;;;;6.76;100.00;103481.16;6251190;28;20050;-81
2023/02/13 03:06:12;;;;;;;;;;;;;;;6.72;100.00;103465.44;6249362;28;20102;-81
2023/02/13 03:23:07;;;;;;;7.97;4.22;;;;;;;6.73;100.00;103468.06;6238814;28;20053;-81
2023/02/13 03:26:48;;;;;;;7.75;3.67;;;;;;;6.75;100.00;103463.72;6253943;28;20041;-80
2023/02/13 03:30:08;;;;;;;12.35;4.75;;;;;;;6.75;100.00;103470.69;6246775;28;20057;-80
2023/02/13 03:33:23;;;;;;;9.80;4.57;;;;;;;6.73;100.00;103470.69;6254211;28;20069;-81
2023/02/13 03:40:02;;;;;;;8.70;4.38;;;;;;;6.74;100.00;103467.22;6254689;28;20128;-81
2023/02/13 03:43:10;;;;;;;16.15;4.85;;;;;;;6.75;100.00;103468.06;6253786;28;20057;-81
2023/02/13 03:46:13;;;;;;;18.88;5.07;;;;;;;6.74;100.00;103474.19;6253996;28;20048;-80
2023/02/13 03:52:47;;;;;;;9.05;4.13;;;;;;;6.73;100.00;103473.31;6253869;28;20041;-81
2023/02/13 03:59:21;;;;;;;12.73;5.00;;;;;;;6.72;100.00;103475.88;6253717;28;20061;-80
2023/02/13 04:02:30;;;;;;;10.73;5.50;;;;;;;6.71;100.00;103476.75;6230747;28;20052;-81
2023/02/13 04:05:37;;;;;;;12.63;5.10;;;;;;;6.70;100.00;103475.88;6236258;28;20041;-81
2023/02/13 04:08:38;;;;;;;11.10;5.18;;;;;;;6.73;100.00;103467.22;6235044;28;20880;-81
2023/02/13 04:11:49;;;;;;;11.82;5.50;;;;;;;6.75;100.00;103471.56;6235303;28;20053;-81
2023/02/13 04:14:58;;;;;;;10.15;4.85;;;;;;;6.73;100.00;103465.47;6236743;28;20052;-81
2023/02/13 04:18:08;;;;;;;7.68;4.10;;;;;;;6.76;100.00;103460.22;6236261;28;20164;-81
2023/02/13 04:21:09;;;;;;;10.23;4.60;;;;;;;6.79;100.00;103459.41;6235812;28;20056;-82
2023/02/13 04:24:11;;;;;;;14.57;5.22;;;;;;;6.73;100.00;103467.22;6235375;28;20155;-80
2023/02/13 04:27:16;;;;;;;9.70;4.18;;;;;;;6.74;100.00;103458.50;6235874;28;20552;-80
2023/02/13 04:30:17;;;;;;;11.15;5.30;;;;;;;6.75;100.00;103462.84;6235565;28;20083;-80
2023/02/13 04:33:19;;;;;;;12.23;5.25;;;;;;;6.72;100.00;103465.44;6235101;28;20049;-80
2023/02/13 04:36:20;;;;;;;11.30;5.15;;;;;;;6.70;100.00;103460.22;6236870;28;20577;-81
2023/02/13 04:39:22;;;;;;;12.68;5.00;;;;;;;6.74;100.00;103463.72;6236597;28;20053;-80
2023/02/13 04:42:24;;;;;;;12.93;5.78;;;;;;;6.66;100.00;103460.19;6235898;28;20049;-81
2023/02/13 04:45:26;;;;;;;12.40;4.63;;;;;;;6.64;100.00;103456.69;6235834;28;20045;-81
2023/02/13 04:48:27;;;;;;;12.55;4.53;;;;;;;6.64;100.00;103462.78;6234793;28;20490;-80
2023/02/13 04:51:28;;;;;;;10.75;4.95;;;;;;;6.64;100.00;103461.91;6235420;28;20538;-80
2023/02/13 04:54:30;;;;;;;13.55;4.70;;;;;;;6.67;100.00;103464.53;6235224;28;20048;-80
2023/02/13 04:57:32;;;;;;;8.85;4.43;;;;;;;6.68;100.00;103461.09;6234127;28;20048;-80
2023/02/13 05:00:34;;;;;;;10.30;5.03;;;;;;;6.68;100.00;103464.56;6234987;28;20050;-80
2023/02/13 05:03:35;;;;;;;14.80;4.97;;;;;;;6.70;100.00;103467.19;6234735;28;20067;-81
2023/02/13 05:06:36;;;;;;;9.20;4.40;;;;;;;6.70;100.00;103465.44;6234680;28;20046;-81
2023/02/13 05:09:38;;;;;;;14.75;5.93;;;;;;;6.69;100.00;103470.66;6235405;28;20055;-81
2023/02/13 05:12:40;;;;;;;9.52;4.22;;;;;;;6.68;100.00;103474.16;6234318;28;20050;-81
2023/02/13 05:15:42;;;;;;;11.68;5.63;;;;;;;6.70;100.00;103477.63;6235524;28;20049;-81
2023/02/13 05:18:43;;;;;;;8.32;4.65;;;;;;;6.70;100.00;103477.63;6235153;28;20049;-81
2023/02/13 05:25:04;;;;;;;9.20;4.97;;;;;;;6.68;100.00;103477.63;6235510;28;20715;-80
2023/02/13 05:29:17;;;;;;;14.70;6.07;;;;;;;6.66;100.00;103473.25;6233330;28;20138;-80
2023/02/13 05:31:29;;;;;;;11.02;5.28;;;;;;;6.68;100.00;103466.31;6232644;28;20585;-77
2023/02/13 05:34:30;;;;;;;10.98;4.65;;;;;;;6.68;100.00;103472.41;6232162;28;20049;-77
2023/02/13 05:37:32;;;;;;;10.50;4.47;;;;;;;6.69;100.00;103471.53;6230224;28;20041;-77
2023/02/13 05:40:33;;;;;;;14.63;5.65;;;;;;;6.69;100.00;103476.75;6231548;28;20053;-77
2023/02/13 05:43:36;;;;;;;11.77;4.97;;;;;;;6.69;100.00;103474.16;6234422;28;20049;-77
2023/02/13 05:46:38;;;;;;;13.65;6.25;;;;;;;6.70;100.00;103478.50;6231222;28;20038;-77
2023/02/13 05:49:40;;;;;;;12.05;5.93;;;;;;;6.66;100.00;103474.13;6230569;28;20580;-77
2023/02/13 05:52:42;;;;;;;11.63;4.55;;;;;;;6.66;100.00;103473.25;6231375;28;20045;-77
2023/02/13 05:55:43;;;;;;;10.77;5.38;;;;;;;6.68;100.00;103482.84;6231768;28;20052;-77
2023/02/13 05:58:46;;;;;;;10.13;5.20;;;;;;;6.68;100.00;103479.38;6228829;28;20053;-77
2023/02/13 06:01:47;;;;;;;14.18;4.78;;;;;;;6.66;100.00;103487.19;6247897;28;20060;-77
2023/02/13 06:04:48;;;;;;;13.95;4.82;;;;;;;6.67;100.00;103481.09;6250838;28;20053;-77
2023/02/13 06:07:50;;;;;;;14.55;5.65;;;;;;;6.72;100.00;103488.94;6250656;28;20053;-77
2023/02/13 06:10:51;;;;;;;10.60;4.97;;;;;;;6.77;100.00;103488.16;6251204;28;20049;-77
2023/02/13 06:13:54;;;;;;;8.95;4.47;;;;;;;6.78;100.00;103489.88;6250995;28;20060;-77
2023/02/13 06:16:55;;;;;;;11.20;5.75;;;;;;;6.78;100.00;103487.28;6250375;28;20045;-77
2023/02/13 06:19:57;;;;;;;14.80;5.93;;;;;;;6.78;100.00;103492.50;6250918;28;20425;-77
2023/02/13 06:22:58;;;;;;;12.63;5.90;;;;;;;6.75;100.00;103483.75;6250687;28;20052;-77
2023/02/13 06:26:02;;;;;;;11.63;5.63;;;;;;;6.76;100.00;103495.94;6250422;28;20050;-77
2023/02/13 06:29:05;;;;;;;10.48;4.70;;;;;;;6.74;100.00;103495.94;6250526;28;20045;-77
2023/02/13 06:32:06;;;;;;;14.70;5.63;;;;;;;6.71;100.00;103495.91;6250469;28;20052;-77
2023/02/13 06:35:09;;;;;;;14.43;6.68;;;;;;;6.70;100.00;103501.16;6250270;28;20053;-77
2023/02/13 06:38:10;;;;;;;12.23;5.75;;;;;;;6.68;100.00;103498.53;6250237;28;20425;-77
2023/02/13 06:41:11;;;;;;;15.98;6.75;;;;;;;6.69;100.00;103499.41;6250377;28;20056;-77
2023/02/13 06:44:14;;;;;;;17.00;6.47;;;;;;;6.71;100.00;103502.88;6250345;28;20060;-77
2023/02/13 06:47:15;;;;;;;10.57;5.35;;;;;;;6.72;100.00;103507.25;6250418;28;20490;-77
2023/02/13 06:50:18;;;;;;;8.88;4.60;;;;;;;6.71;100.00;103505.50;6249997;28;20049;-77
2023/02/13 06:53:23;;;;;;;15.25;5.53;;;;;;;6.74;100.00;103503.78;6250084;28;20045;-77
2023/02/13 06:56:25;;;;;;;12.25;5.70;;;;;;;6.73;100.00;103511.63;6250285;28;20444;-77
2023/02/13 06:59:27;;;;;;;14.10;5.75;;;;;;;6.74;100.00;103518.59;6250349;28;20061;-77
2023/02/13 07:02:29;;;;;;;13.60;6.88;;;;;;;6.77;100.00;103516.03;6249922;28;20049;-77
2023/02/13 07:05:30;;;;;;;21.02;7.60;;;;;;;6.75;100.00;103512.50;6249749;28;20049;-77
2023/02/13 07:08:31;;;;;;;16.50;7.07;;;;;;;6.79;100.00;103520.38;6250025;28;20041;-77
2023/02/13 07:11:33;;;;;;;15.65;7.03;;;;;;;6.81;100.00;103529.13;6249936;28;20045;-77
2023/02/13 07:14:35;;;;;;;16.38;6.43;;;;;;;6.81;100.00;103518.66;6249918;28;20327;-77
2023/02/13 07:17:37;;;;;;;15.50;7.05;;;;;;;6.78;100.00;103530.84;6249862;28;20057;-77
2023/02/13 07:20:38;;;;;;;16.65;6.82;;;;;;;6.78;100.00;103525.59;6249965;28;20056;-77
2023/02/13 07:23:39;;;;;;;12.60;5.68;;;;;;;6.78;100.00;103526.47;6249121;28;20049;-77
2023/02/13 07:26:41;;;;;;;10.80;5.45;;;;;;;6.80;100.00;103534.31;6249456;28;20056;-78
2023/02/13 07:29:43;;;;;;;13.43;5.70;;;;;;;6.77;100.00;103529.97;6249119;28;20384;-77
2023/02/13 07:32:45;;;;;;;15.45;6.18;;;;;;;6.77;100.00;103531.69;6249221;28;20049;-77
2023/02/13 07:35:47;;;;;;;11.95;5.68;;;;;;;6.80;100.00;103527.34;6249369;28;20045;-77
2023/02/13 07:38:48;;;;;;;15.23;5.95;;;;;;;6.88;100.00;103532.63;6249497;28;20056;-77
2023/02/13 07:41:50;;;;;;;13.05;5.78;;;;;;;6.83;100.00;103535.22;6249945;28;20056;-77
2023/02/13 07:44:53;;;;;;;17.75;6.88;;;;;;;6.89;100.00;103534.38;6253597;28;20392;-77
2023/02/13 07:47:55;;;;;;;12.48;5.22;;;;;;;6.84;100.00;103536.97;6253626;28;20045;-77
2023/02/13 07:51:00;;;;;;;10.65;5.15;;;;;;;6.87;100.00;103533.50;6253403;28;20048;-77
2023/02/13 07:54:02;;;;;;;12.98;6.43;;;;;;;6.79;100.00;103537.81;6253125;28;20045;-77
2023/02/13 07:57:04;;;;;;;18.13;6.10;;;;;;;6.80;100.00;103532.56;6252704;28;20052;-77
2023/02/13 08:00:08;;;;;;;18.05;6.55;;;;;;;6.83;100.00;103539.56;6253530;28;20049;-77
2023/02/13 08:03:09;;;;;;;10.23;5.35;;;;;;;6.86;100.00;103544.84;6253106;28;20045;-77
2023/02/13 08:06:11;;;;;;;15.13;5.43;;;;;;;6.86;100.00;103540.47;6253334;28;20045;-77
2023/02/13 08:12:38;;;;;;;15.93;6.00;;;;;;;6.90;100.00;103540.47;6253766;28;20049;-76
2023/02/13 08:15:43;;;;;;;13.18;5.40;;;;;;;6.91;100.00;103543.13;6253556;28;20429;-78
2023/02/13 08:18:44;;;;;;;12.63;5.10;;;;;;;6.91;100.00;103532.66;6253730;28;20051;-77
2023/02/13 08:21:49;;;;;;;15.20;6.78;;;;;;;6.89;100.00;103541.34;6253710;28;20052;-79
2023/02/13 08:24:50;;;;;;;14.15;5.35;;;;;;;6.91;100.00;103532.66;6245731;28;20049;-90
2023/02/13 08:27:51;;;;;;;14.68;6.10;;;;;;;6.93;100.00;103543.13;6256518;28;20045;-85
2023/02/13 08:30:54;;;;;;;13.73;6.00;;;;;;;6.97;100.00;103544.91;6254682;28;20056;-89
2023/02/13 08:33:56;;;;;;;15.85;6.22;;;;;;;6.97;100.00;103542.28;6253871;28;20049;-91
2023/02/13 08:36:57;;;;;;;15.70;6.40;;;;;;;7.01;100.00;103544.94;6254748;28;20042;-91
2023/02/13 08:39:59;;;;;;;18.55;6.53;;;;;;;7.02;100.00;103543.19;6253709;28;20049;-83
2023/02/13 08:43:01;;;;;;;16.55;6.95;;;;;;;7.01;100.00;103547.53;6267478;28;20364;-79
2023/02/13 08:46:04;;;;;;;16.70;7.00;;;;;;;7.03;100.00;103547.53;6277526;28;20172;-82
2023/02/13 08:49:05;;;;;;;20.33;6.72;;;;;;;7.03;100.00;103545.81;6277575;28;20044;-82
2023/02/13 08:52:06;;;;;;;16.92;6.70;;;;;;;7.06;100.00;103551.06;6277775;28;20049;-84
2023/02/13 08:55:08;;;;;;;12.77;5.93;;;;;;;7.08;100.00;103543.22;6260829;28;20049;-85
2023/02/13 08:58:09;;;;;;;21.10;6.28;;;;;;;7.08;100.00;103546.69;6252823;28;20350;-83
2023/02/13 09:01:12;;;;;;;14.90;6.15;;;;;;;7.08;100.00;103549.31;6252449;28;20042;-83
2023/02/13 09:04:14;;;;;;;18.65;6.57;;;;;;;7.10;100.00;103541.50;6251571;28;20377;-81
2023/02/13 09:07:15;;;;;;;14.35;5.60;;;;;;;7.13;100.00;103544.16;6252170;28;20056;-79
2023/02/13 09:10:17;;;;;;;16.33;5.57;;;;;;;7.15;100.00;103547.63;6251760;28;20053;-78
2023/02/13 09:13:19;;;;;;;15.43;5.95;;;;;;;7.16;100.00;103546.75;6251265;28;20046;-78
2023/02/13 09:16:22;;;;;;;16.75;6.05;;;;;;;7.18;100.00;103539.81;6251196;28;20357;-79
2023/02/13 09:19:23;;;;;;;17.60;6.18;;;;;;;7.17;100.00;103543.28;6251730;28;20076;-78
2023/02/13 09:22:25;;;;;;;16.23;6.80;;;;;;;7.22;100.00;103545.91;6251649;28;20348;-78
2023/02/13 09:25:26;;;;;;;13.90;6.03;;;;;;;7.26;100.00;103550.28;6250758;28;20049;-79
2023/02/13 09:28:28;;;;;;;15.65;5.35;;;;;;;7.27;100.00;103546.84;6251195;28;20096;-78
2023/02/13 09:31:31;;;;;;;14.10;5.85;;;;;;;7.27;100.00;103541.59;6251500;28;20437;-79
2023/02/13 09:34:33;;;;;;;12.90;4.80;;;;;;;7.34;100.00;103538.13;6251051;28;20587;-77
2023/02/13 09:37:34;;;;;;;17.20;5.80;;;;;;;7.35;100.00;103538.13;6251367;28;20045;-77
2023/02/13 09:40:43;;;;;;;17.98;5.97;;;;;;;7.39;100.00;103546.88;6251016;28;20108;-77
2023/02/13 09:43:48;;;;;;;13.68;5.32;;;;;;;7.37;100.00;103552.13;6250892;28;20049;-78
2023/02/13 09:46:51;;;;;;;14.48;5.85;;;;;;;7.37;100.00;103548.63;6250774;28;20334;-79
2023/02/13 09:49:55;;;;;;;17.05;5.75;;;;;;;7.40;100.00;103546.00;6251122;28;20046;-78
2023/02/13 09:52:59;;;;;;;13.27;5.65;;;;;;;7.43;100.00;103547.78;6251350;28;20056;-78
2023/02/13 09:56:09;;;;;;;14.77;5.68;;;;;;;7.49;100.00;103546.06;6250910;28;20049;-78
2023/02/13 09:59:29;;;;;;;12.20;4.97;;;;;;;7.51;100.00;103549.56;6251072;28;20041;-76
2023/02/13 10:02:58;;;;;;;15.57;6.93;;;;;;;7.49;100.00;103542.56;6251138;28;20046;-78
2023/02/13 10:06:08;;;;;;;13.57;5.50;;;;;;;7.55;100.00;103543.47;6250602;28;20054;-77
2023/02/13 10:09:17;;;;;;;13.82;6.13;;;;;;;7.56;100.00;103552.19;6250401;28;20041;-77
2023/02/13 10:12:46;;;;;;;10.35;5.03;;;;;;;7.60;100.00;103556.59;6251055;28;20434;-77
2023/02/13 10:15:54;;;;;;;13.57;5.05;;;;;;;7.58;100.00;103563.53;6250873;28;20053;-78
2023/02/13 10:19:00;;;;;;;13.32;6.07;;;;;;;7.60;100.00;103559.19;6250538;28;20045;-77
2023/02/13 10:22:06;;;;;;;16.92;5.82;;;;;;;7.62;100.00;103555.72;6250968;28;20056;-77
2023/02/13 10:25:15;;;;;;;13.43;5.18;;;;;;;7.65;100.00;103561.84;6250053;28;20053;-76
2023/02/13 10:28:27;;;;;;;16.23;5.20;;;;;;;7.67;100.00;103562.72;6250465;28;20342;-78
2023/02/13 10:31:29;;;;;;;11.95;4.88;;;;;;;7.64;100.00;103555.72;6250566;28;20046;-78
2023/02/13 10:34:38;;;;;;;14.52;4.95;;;;;;;7.71;100.00;103567.09;6250261;28;20061;-78
2023/02/13 10:37:39;;;;;;;10.88;4.35;;;;;;;7.69;100.00;103559.25;6249922;28;20093;-78
2023/02/13 10:40:53;;;;;;;13.52;5.70;;;;;;;7.63;100.00;103559.22;6250038;28;20045;-77
2023/02/13 10:44:21;;;;;;;12.93;4.28;;;;;;;7.72;100.00;103550.50;6249685;28;20045;-78
2023/02/13 10:47:36;;;;;;;11.77;4.68;;;;;;;7.76;100.00;103561.00;6247755;28;20053;-77
2023/02/13 10:50:48;;;;;;;12.93;5.75;;;;;;;7.71;100.00;103552.25;6250404;28;20472;-78
2023/02/13 10:54:15;;;;;;;16.80;6.30;;;;;;;7.69;100.00;103548.78;6250275;28;20143;-77
2023/02/13 10:57:23;;;;;;;10.55;4.60;;;;;;;7.77;100.00;103543.56;6225374;28;20057;-78
2023/02/13 11:00:30;;;;;;;9.43;4.15;;;;;;;7.76;100.00;103541.78;6225839;28;20054;-78
2023/02/13 11:03:31;;;;;;;11.27;4.38;;;;;;;7.72;100.00;103548.78;6225883;28;20045;-76
2023/02/13 11:06:36;;;;;;;12.02;5.00;;;;;;;7.77;100.00;103543.56;6225465;28;20053;-77
2023/02/13 11:09:41;;;;;;;13.98;4.75;;;;;;;7.77;100.00;103535.72;6225671;28;20046;-77
2023/02/13 11:12:42;;;;;;;12.43;4.43;;;;;;;7.86;100.00;103534.00;6242842;28;20053;-78
2023/02/13 11:15:57;;;;;;;13.32;4.97;;;;;;;7.86;100.00;103533.13;6249922;28;20076;-78
2023/02/13 11:18:58;;;;;;;12.48;4.70;;;;;;;7.89;100.00;103528.75;6254409;28;20045;-77
2023/02/13 11:22:04;;;;;;;14.05;4.63;;;;;;;7.86;100.00;103522.66;6255117;28;20057;-77
2023/02/13 11:25:16;;;;;;;8.30;3.60;;;;;;;7.92;100.00;103527.91;6234213;28;20179;-77
2023/02/13 11:28:21;;;;;;;13.43;4.22;;;;;;;7.91;100.00;103518.31;6248347;28;20049;-76
2023/02/13 11:31:26;;;;;;;13.18;4.15;;;;;;;7.98;100.00;103516.56;6253769;28;20437;-76
2023/02/13 11:34:30;;;;;;;12.02;3.92;;;;;;;7.98;100.00;103521.78;6233499;28;20422;-76
2023/02/13 11:37:33;;;;;;;16.05;4.93;;;;;;;8.03;100.00;103513.06;6241201;28;20057;-77
2023/02/13 11:40:34;;;;;;;11.48;3.92;;;;;;;8.01;100.00;103519.19;6253906;28;20392;-76
2023/02/13 11:43:43;;;;;;;8.93;3.85;;;;;;;8.08;100.00;103510.44;6254207;28;20049;-77
2023/02/13 11:46:47;;;;;;;8.65;3.97;;;;;;;7.97;100.00;103520.06;6252614;28;20046;-76
2023/02/13 11:49:49;;;;;;;9.60;4.07;;;;;;;8.04;100.00;103514.84;6254198;28;20042;-76
2023/02/13 11:52:58;;;;;;;10.55;3.25;;;;;;;8.11;100.00;103507.84;6253805;28;20049;-76
2023/02/13 11:56:06;;;;;;;10.85;4.80;;;;;;;8.15;100.00;103509.59;6253319;28;20349;-76
2023/02/13 11:59:13;;;;;;;7.10;3.33;;;;;;;8.18;100.00;103504.38;6253929;28;20049;-76
2023/02/13 12:02:18;;;;;;;10.38;4.85;;;;;;;8.22;100.00;103502.63;6254088;28;20050;-76
2023/02/13 12:05:21;;;;;;;8.88;3.53;;;;;;;8.18;100.00;103509.63;6253383;28;20380;-77
2023/02/13 12:08:24;;;;;;;11.00;3.88;;;;;;;8.17;100.00;103507.84;6253636;28;20048;-76
2023/02/13 12:11:34;;;;;;;10.40;3.80;;;;;;;8.19;100.00;103502.63;6254128;28;20045;-78
2023/02/13 12:14:40;;;;;;;15.07;4.43;;;;;;;8.17;100.00;103501.75;6253732;28;20056;-78
2023/02/13 12:17:43;;;;;;;15.13;4.63;;;;;;;8.21;100.00;103508.72;6253099;28;20056;-79
2023/02/13 12:20:57;;;;;;;14.13;4.55;;;;;;;8.27;100.00;103500.91;6253603;28;20388;-78
2023/02/13 12:24:04;;;;;;;10.35;4.00;;;;;;;8.28;100.00;103505.25;6253530;28;20349;-78
2023/02/13 12:27:18;;;;;;;11.13;4.40;;;;;;;8.31;100.00;103492.13;6252720;28;20049;-78
2023/02/13 12:30:42;;;;;;;9.27;3.75;;;;;;;8.39;100.00;103490.44;6253119;28;20182;-78
2023/02/13 12:34:08;;;;;;;8.73;3.60;;;;;;;8.45;100.00;103490.44;6253147;28;20477;-78
2023/02/13 12:37:20;;;;;;;10.18;4.43;;;;;;;8.44;100.00;103483.44;6252695;28;20330;-78
2023/02/13 12:40:49;;;;;;;9.93;4.95;;;;;;;8.44;100.00;103488.69;6253002;28;20054;-79
2023/02/13 12:44:20;;;;;;;8.50;4.28;;;;;;;8.48;100.00;103484.31;6253218;28;20049;-78
2023/02/13 12:47:23;;;;;;;8.07;3.53;;;;;;;8.46;100.00;103473.84;6224476;28;20334;-78
2023/02/13 12:50:37;;;;;;;8.93;4.20;;;;;;;8.51;100.00;103484.31;6252781;28;20056;-78
2023/02/13 12:54:00;;;;;;;8.52;3.55;;;;;;;8.53;100.00;103477.31;6252934;28;20057;-78
2023/02/13 12:57:23;;;;;;;13.55;4.97;;;;;;;8.55;100.00;103468.59;6252135;28;20049;-78
2023/02/13 13:00:37;;;;;;;10.82;4.68;;;;;;;8.53;100.00;103456.34;6245048;28;20060;-77
2023/02/13 13:03:51;;;;;;;9.57;4.43;;;;;;;8.55;100.00;103454.63;6257537;28;20049;-78
2023/02/13 13:07:09;;;;;;;10.13;4.43;;;;;;;8.61;100.00;103444.13;6258123;28;20060;-78
2023/02/13 13:10:33;;;;;;;12.30;4.65;;;;;;;8.62;100.00;103453.72;6267239;28;20373;-78
2023/02/13 13:13:48;;;;;;;12.77;4.85;;;;;;;8.67;100.00;103444.09;6246603;28;20056;-78
2023/02/13 13:16:59;;;;;;;10.68;3.92;;;;;;;8.64;100.00;103442.38;6244119;28;20080;-77
2023/02/13 13:20:14;;;;;;;13.10;4.78;;;;;;;8.60;100.00;103439.75;6249893;28;20060;-77
2023/02/13 13:23:19;;;;;;;7.70;2.92;;;;;;;8.67;100.00;103440.59;6247113;28;20495;-79
2023/02/13 13:26:30;;;;;;;13.00;4.75;;;;;;;8.72;100.00;103439.75;6251016;28;20043;-77
2023/02/13 13:29:42;;;;;;;11.63;4.20;;;;;;;8.74;100.00;103435.34;6252040;28;20045;-78
2023/02/13 13:32:47;;;;;;;6.85;3.10;;;;;;;8.72;100.00;103429.25;6251349;28;20433;-77
2023/02/13 13:35:57;;;;;;;6.85;3.45;;;;;;;8.77;100.00;103432.72;6257942;28;20372;-78
2023/02/13 13:39:05;;;;;;;10.05;3.38;;;;;;;8.79;100.00;103427.47;6276347;28;20064;-79
2023/02/13 13:42:15;;;;;;;8.85;3.95;;;;;;;8.82;100.00;103430.97;6276531;28;20053;-78
2023/02/13 13:45:28;;;;;;;8.38;3.40;;;;;;;8.81;100.00;103431.84;6262194;28;20099;-78
2023/02/13 13:48:50;;;;;;;8.20;3.67;;;;;;;8.78;100.00;103426.59;6251204;28;20046;-79
2023/02/13 13:51:51;;;;;;;8.70;3.50;;;;;;;8.73;100.00;103414.41;6251597;28;20041;-79
2023/02/13 13:54:54;;;;;;;6.93;3.30;;;;;;;8.66;100.00;103416.13;6250661;28;20453;-79
2023/02/13 13:58:00;;;;;;;7.35;3.70;;;;;;;8.64;100.00;103416.16;6250011;28;20049;-79
2023/02/13 14:01:24;;;;;;;7.70;3.45;;;;;;;8.68;100.00;103417.03;6250972;28;20045;-81
2023/02/13 14:04:40;;;;;;;12.23;3.47;;;;;;;8.71;100.00;103413.50;6250909;28;20052;-80
2023/02/13 14:07:42;;;;;;;9.25;3.70;;;;;;;8.70;100.00;103417.00;6250736;28;20104;-81
2023/02/13 14:11:24;;;;;;;7.57;3.83;;;;;;;8.68;100.00;103410.91;6250836;28;20050;-81
2023/02/13 14:14:51;;;;;;;8.80;4.20;;;;;;;8.69;100.00;103412.66;6250839;28;20056;-78
2023/02/13 14:17:55;;;;;;;6.15;2.95;;;;;;;8.71;100.00;103410.88;6250634;28;20393;-78
2023/02/13 14:20:59;;;;;;;8.65;3.53;;;;;;;8.67;100.00;103406.53;6250453;28;20045;-78
2023/02/13 14:24:02;;;;;;;10.40;3.92;;;;;;;8.67;100.00;103407.41;6250644;28;20049;-78
2023/02/13 14:27:04;;;;;;;7.43;3.50;;;;;;;8.70;100.00;103403.91;6249705;28;20053;-77
2023/02/13 14:30:25;;;;;;;7.65;3.67;;;;;;;8.75;100.00;103408.25;6250290;28;20046;-77
2023/02/13 14:33:30;;;;;;;9.45;3.70;;;;;;;8.70;100.00;103410.03;6250366;28;20041;-78
2023/02/13 14:36:34;;;;;;;7.70;3.70;;;;;;;8.76;100.00;103403.88;6250362;28;20046;-79
2023/02/13 14:39:40;;;;;;;10.00;3.70;;;;;;;8.73;100.00;103399.53;6250245;28;20046;-80
2023/02/13 14:42:44;;;;;;;7.82;3.50;;;;;;;8.71;100.00;103408.25;6250329;28;20104;-78
2023/02/13 14:45:51;;;;;;;11.02;4.72;;;;;;;8.60;100.00;103401.31;6250312;28;20053;-77
2023/02/13 14:48:58;;;;;;;11.10;3.63;;;;;;;8.58;100.00;103395.22;6250597;28;20046;-77
2023/02/13 14:52:02;;;;;;;8.80;3.45;;;;;;;8.60;100.00;103396.06;6251431;28;20438;-78
2023/02/13 14:55:07;;;;;;;9.35;4.30;;;;;;;8.57;100.00;103390.81;6255059;28;20049;-78
2023/02/13 14:58:15;;;;;;;7.85;3.95;;;;;;;8.58;100.00;103389.97;6255173;28;20064;-78
2023/02/13 15:01:25;;;;;;;7.78;3.92;;;;;;;8.57;100.00;103388.19;6255386;28;20050;-79